Impacts METAR Board
IDs:

KCLE - Cleveland/Hopkins In, OH, US

Updated at: 0700 UTC 24 Jun 2018
Potential Impact None Slight Moderate High
Time 23/19Z 23/20Z 23/21Z 23/22Z 23/23Z 24/00Z 24/01Z 24/02Z 24/03Z 24/04Z 24/05Z 24/06Z 24/07Z
Temp77 76 78 75 71 71 71 69 71 70 69 69 68
Dewpt64 69 68 68 68 67 67 67 67 67 66 66 65
Altim29.72 29.72 29.73 29.74 29.75 29.77 29.78 29.79 29.80 29.81 29.81 29.82 29.82
VIS10 10 10 10 6 10 10 10 10 10 10 10 10
CIG38 -- 150 70 90 80 70 80 75 60 70 80 80
CoverBKNSCTBKNBKNBKNBKNBKNBKNBKNBKNBKNBKNOVC
FltCatVFRVFRVFRVFRVFRVFRVFRVFRVFRVFRVFRVFRVFR
WX---------RA BR----------------
WDir250250260240230240220210230230190210230
WSpd10 8 10 7 10 9 6 4 5 6 4 6 5
WGst18 -- -- -- -- -- -- -- -- -- -- -- --
Raw hourly METARs
KCLE 231851Z 25010G18KT 10SM BKN038CB BKN060 BKN250 25/18 A2972 RMK AO2 SLP058 VCSH CB OHD AND SW-NW MOV E T02500178 $
KCLE 231951Z 25008KT 10SM FEW030 SCT150 SCT250 24/21 A2972 RMK AO2 RAB1859E28 SLP058 CB DSNT S MOV E P0004 T02440206 $
KCLE 232051Z 26010KT 10SM SCT021 BKN150 BKN250 26/20 A2973 RMK AO2 SLP062 CB DSNT SW MOV E 60004 T02560200 53004 $
KCLE 232151Z 24007KT 10SM FEW020 BKN070 BKN250 24/20 A2974 RMK AO2 RAB17E26 SLP067 CB DSNT SE AND SW-NW MOV E P0000 T02390200 $
KCLE 232251Z 23010KT 6SM -RA BR SCT020CB BKN090 BKN250 22/20 A2975 RMK AO2 RAB28 SLP070 CB OHD AND SE-SW MOV E P0006 T02170200 $
KCLE 232351Z 24009KT 10SM FEW040 BKN080 22/19 A2977 RMK AO2 RAE2253 SLP075 P0000 60010 T02170194 10272 20217 53012 $
KCLE 240051Z 22006KT 10SM FEW055 BKN070 BKN110 22/19 A2978 RMK AO2 SLP079 T02170194 $
KCLE 240151Z 21004KT 10SM FEW055 BKN080 21/19 A2979 RMK AO2 SLP084 T02060194 $
KCLE 240251Z 23005KT 10SM BKN075 22/19 A2980 RMK AO2 SLP086 T02170194 52012 $
KCLE 240351Z 23006KT 10SM BKN060 BKN095 21/19 A2981 RMK AO2 SLP090 T02110194 $
KCLE 240451Z 19004KT 10SM BKN070 21/19 A2981 RMK AO2 SLP087 T02060189 402720194 $
KCLE 240551Z 21006KT 10SM BKN080 21/19 A2982 RMK AO2 SLP091 T02060189 10222 20206 53004 $
KCLE 240651Z 23005KT 10SM OVC080 20/18 A2982 RMK AO2 SLP091 T02000183 $



Page loaded:  07:10 UTC  |   12:10 AM Pacific  |   01:10 AM Mountain  |   02:10 AM Central  |   03:10 AM Eastern

 

ADVISORIES

FORECASTS

FORECASTS

OBSERVATIONS

USER TOOLS

ABOUT US